createdAt,value
2022-10-09T00:01:13.101Z,93.40
2022-10-09T00:03:59.731Z,93.10
2022-10-09T00:06:44.970Z,93.30
2022-10-09T00:09:58.478Z,93.30
2022-10-09T00:12:43.912Z,93.20
2022-10-09T00:15:29.427Z,93.20
2022-10-09T00:18:16.723Z,93.30
2022-10-09T00:21:02.701Z,93.50
2022-10-09T00:23:48.518Z,93.60
2022-10-09T00:26:33.936Z,93.60
2022-10-09T00:29:19.495Z,93.60
2022-10-09T00:32:04.684Z,93.80
2022-10-09T00:34:51.206Z,93.90
2022-10-09T00:37:39.195Z,93.90
2022-10-09T00:40:24.626Z,94.00
2022-10-09T00:43:16.539Z,94.00
2022-10-09T00:46:02.588Z,93.90
2022-10-09T00:49:02.939Z,94.00
2022-10-09T00:51:51.355Z,94.00
2022-10-09T00:54:38.960Z,94.10
2022-10-09T00:57:25.279Z,94.10
2022-10-09T01:00:13.896Z,94.10
2022-10-09T01:02:59.265Z,94.20
2022-10-09T01:06:08.677Z,94.30
2022-10-09T01:09:12.315Z,94.50
2022-10-09T01:12:33.858Z,94.40
2022-10-09T01:15:33.497Z,94.50
2022-10-09T01:18:34.971Z,94.70
2022-10-09T01:21:40.278Z,94.70
2022-10-09T01:24:46.350Z,94.70
2022-10-09T01:27:32.848Z,94.70
2022-10-09T01:30:20.553Z,94.70
2022-10-09T01:33:06.734Z,94.80
2022-10-09T01:35:53.377Z,94.80
2022-10-09T01:38:40.236Z,95.00
2022-10-09T01:41:26.448Z,95.00
2022-10-09T01:44:20.917Z,95.10
2022-10-09T01:47:06.938Z,95.30
2022-10-09T01:50:14.342Z,95.30
2022-10-09T01:53:03.839Z,95.30
2022-10-09T01:56:11.486Z,95.20
2022-10-09T01:58:59.242Z,95.00
2022-10-09T02:01:47.922Z,94.90
2022-10-09T02:04:35.327Z,94.90
2022-10-09T02:07:23.747Z,94.90
2022-10-09T02:10:12.735Z,95.00
2022-10-09T02:13:01.279Z,95.00
2022-10-09T02:16:15.071Z,95.30
2022-10-09T02:19:25.346Z,95.00
2022-10-09T02:22:18.600Z,95.10
2022-10-09T02:25:06.411Z,95.20
2022-10-09T02:27:51.946Z,95.20
2022-10-09T02:31:01.569Z,95.30
2022-10-09T02:33:54.089Z,95.40
2022-10-09T02:36:40.540Z,95.30
2022-10-09T02:39:26.021Z,95.40
2022-10-09T02:42:11.833Z,95.50
2022-10-09T02:44:57.517Z,95.60
2022-10-09T02:47:42.771Z,95.60
2022-10-09T02:50:28.383Z,95.50
2022-10-09T02:53:13.522Z,95.60
2022-10-09T02:55:59.113Z,95.40
2022-10-09T02:58:44.451Z,95.40
2022-10-09T03:01:29.797Z,95.40
2022-10-09T03:04:15.333Z,95.50
2022-10-09T03:07:00.576Z,95.40
2022-10-09T03:09:46.233Z,95.50
2022-10-09T03:12:31.402Z,95.40
2022-10-09T03:15:19.631Z,95.40
2022-10-09T03:18:05.328Z,95.40
2022-10-09T03:20:53.325Z,95.70
2022-10-09T03:23:38.775Z,95.60
2022-10-09T03:26:26.470Z,95.50
2022-10-09T03:29:12.228Z,95.70
2022-10-09T03:31:57.305Z,95.70
2022-10-09T03:34:42.849Z,95.80
2022-10-09T03:37:28.179Z,96.00
2022-10-09T03:40:13.728Z,96.00
2022-10-09T03:42:59.425Z,96.00
2022-10-09T03:45:44.745Z,96.20
2022-10-09T03:48:30.300Z,96.20
2022-10-09T03:51:15.705Z,96.10
2022-10-09T03:54:00.822Z,96.10
2022-10-09T03:56:46.246Z,96.00
2022-10-09T03:59:31.750Z,96.20
2022-10-09T04:02:17.312Z,96.50
2022-10-09T04:05:06.767Z,96.50
2022-10-09T04:07:52.432Z,96.80
2022-10-09T04:10:38.151Z,96.70
2022-10-09T04:13:23.313Z,96.60
2022-10-09T04:16:12.834Z,96.60
2022-10-09T04:18:58.662Z,96.60
2022-10-09T04:21:43.743Z,96.70
2022-10-09T04:24:29.620Z,96.70
2022-10-09T04:27:14.908Z,96.60
2022-10-09T04:30:00.371Z,96.50
2022-10-09T04:32:48.662Z,96.40
2022-10-09T04:35:34.425Z,96.70
2022-10-09T04:38:21.094Z,97.10
2022-10-09T04:41:07.645Z,96.80
2022-10-09T04:43:56.686Z,96.90
2022-10-09T04:46:42.527Z,96.90
2022-10-09T04:49:28.595Z,97.00
2022-10-09T04:52:13.768Z,96.90
2022-10-09T04:54:59.448Z,96.80
2022-10-09T04:57:45.031Z,96.70
2022-10-09T05:00:30.382Z,96.80
2022-10-09T05:03:15.605Z,96.70
2022-10-09T05:06:02.595Z,96.80
2022-10-09T05:08:50.608Z,96.90
2022-10-09T05:11:42.515Z,97.00
2022-10-09T05:14:28.212Z,97.10
2022-10-09T05:17:14.957Z,97.10
2022-10-09T05:20:00.480Z,97.30
2022-10-09T05:22:47.560Z,97.30
2022-10-09T05:25:33.244Z,97.30
2022-10-09T05:28:18.748Z,97.40
2022-10-09T05:31:08.171Z,97.40
2022-10-09T05:33:55.372Z,97.50
2022-10-09T05:36:41.016Z,97.40
2022-10-09T05:39:26.436Z,97.20
2022-10-09T05:42:11.681Z,97.30
2022-10-09T05:44:57.429Z,97.40
2022-10-09T05:47:42.659Z,97.30
2022-10-09T05:50:28.551Z,97.20
2022-10-09T05:53:14.750Z,97.20
2022-10-09T05:56:16.920Z,97.10
2022-10-09T05:59:08.395Z,97.10
2022-10-09T06:01:54.796Z,97.20
2022-10-09T06:04:40.389Z,97.50
2022-10-09T06:07:26.152Z,97.50
2022-10-09T06:10:11.627Z,97.40
2022-10-09T06:12:56.881Z,97.40
2022-10-09T06:15:52.400Z,97.40
2022-10-09T06:18:38.903Z,97.30
2022-10-09T06:21:26.307Z,97.30
2022-10-09T06:24:28.179Z,97.40
2022-10-09T06:27:14.433Z,97.40
2022-10-09T06:29:59.663Z,97.30
2022-10-09T06:32:46.552Z,97.20
2022-10-09T06:35:34.842Z,97.10
2022-10-09T06:38:20.267Z,97.20
2022-10-09T06:41:10.323Z,97.10
2022-10-09T06:43:58.623Z,97.30
2022-10-09T06:46:45.202Z,97.30
2022-10-09T06:49:30.395Z,97.20
2022-10-09T06:52:15.820Z,97.20
2022-10-09T06:55:01.360Z,97.60
2022-10-09T06:57:46.764Z,97.30
2022-10-09T07:00:33.226Z,97.30
2022-10-09T07:03:19.223Z,97.30
2022-10-09T07:06:15.350Z,97.40
2022-10-09T07:09:03.577Z,97.40
2022-10-09T07:11:49.508Z,97.60
2022-10-09T07:14:35.305Z,97.50
2022-10-09T07:17:20.607Z,97.50
2022-10-09T07:20:06.469Z,97.60
2022-10-09T07:22:52.140Z,97.60
2022-10-09T07:25:43.022Z,97.70
2022-10-09T07:28:30.185Z,97.70
2022-10-09T07:31:16.251Z,97.70
2022-10-09T07:34:02.835Z,97.70
2022-10-09T07:36:47.944Z,97.70
2022-10-09T07:39:34.912Z,97.90
2022-10-09T07:42:20.557Z,97.90
2022-10-09T07:45:06.660Z,97.90
2022-10-09T07:47:52.264Z,97.90
2022-10-09T07:50:40.704Z,97.90
2022-10-09T07:53:31.503Z,97.90
2022-10-09T07:56:26.811Z,98.00
2022-10-09T07:59:14.382Z,98.00
2022-10-09T08:01:59.969Z,98.10
2022-10-09T08:04:45.570Z,98.20
2022-10-09T08:07:34.794Z,98.10
2022-10-09T08:10:20.283Z,98.10
2022-10-09T08:13:05.902Z,98.20
2022-10-09T08:15:51.496Z,98.40
2022-10-09T08:18:37.153Z,98.20
2022-10-09T08:21:22.851Z,98.20
2022-10-09T08:24:13.460Z,98.10
2022-10-09T08:26:58.660Z,98.10
2022-10-09T08:29:46.794Z,98.10
2022-10-09T08:32:31.842Z,98.00
2022-10-09T08:35:17.346Z,97.90
2022-10-09T08:38:03.009Z,97.80
2022-10-09T08:40:58.431Z,97.80
2022-10-09T08:43:45.352Z,97.90
2022-10-09T08:46:40.128Z,97.80
2022-10-09T08:49:43.972Z,97.40
2022-10-09T08:52:51.480Z,97.40
2022-10-09T08:55:43.695Z,97.50
2022-10-09T08:58:35.938Z,97.40
2022-10-09T09:01:48.720Z,97.30
2022-10-09T09:04:54.592Z,97.30
2022-10-09T09:08:02.655Z,97.30
2022-10-09T09:10:50.867Z,97.20
2022-10-09T09:14:01.135Z,97.10
2022-10-09T09:17:07.548Z,97.20
2022-10-09T09:20:19.980Z,97.20
2022-10-09T09:23:12.376Z,97.30
2022-10-09T09:25:59.640Z,97.10
2022-10-09T09:28:48.733Z,96.60
2022-10-09T09:31:37.413Z,96.70
2022-10-09T09:34:36.798Z,96.60
2022-10-09T09:37:23.536Z,96.50
2022-10-09T09:40:36.689Z,96.20
2022-10-09T09:43:24.671Z,95.90
2022-10-09T09:46:30.480Z,95.60
2022-10-09T09:49:23.832Z,95.60
2022-10-09T09:52:09.287Z,95.00
2022-10-09T09:55:07.355Z,94.50
2022-10-09T09:57:58.671Z,93.70
2022-10-09T10:00:58.684Z,93.80
2022-10-09T10:03:50.708Z,94.00
2022-10-09T10:06:43.767Z,93.50
2022-10-09T10:09:29.031Z,93.90
2022-10-09T10:12:22.435Z,92.00
2022-10-09T10:15:17.744Z,91.90
2022-10-09T10:18:12.231Z,91.10
2022-10-09T10:21:04.727Z,91.40
2022-10-09T10:24:03.773Z,90.70
2022-10-09T10:27:05.971Z,90.90
2022-10-09T10:29:56.096Z,89.80
2022-10-09T10:33:02.763Z,89.40
2022-10-09T10:35:52.909Z,88.40
2022-10-09T10:38:54.504Z,89.00
2022-10-09T10:41:47.815Z,86.40
2022-10-09T10:44:43.240Z,82.80
2022-10-09T10:47:32.639Z,82.60
2022-10-09T10:50:20.270Z,80.40
2022-10-09T10:53:39.375Z,77.80
2022-10-09T10:56:30.506Z,77.20
2022-10-09T10:59:39.897Z,76.90
2022-10-09T11:02:33.120Z,77.00
2022-10-09T11:05:34.188Z,75.00
2022-10-09T11:08:28.199Z,72.80
2022-10-09T11:11:29.599Z,71.50
2022-10-09T11:14:48.163Z,63.80
2022-10-09T11:18:00.039Z,63.60
2022-10-09T11:20:57.005Z,60.40
2022-10-09T11:24:26.742Z,61.20
2022-10-09T11:27:31.110Z,59.80
2022-10-09T11:30:20.851Z,58.20
2022-10-09T11:33:45.527Z,55.80
2022-10-09T11:36:41.773Z,51.50
2022-10-09T11:39:31.107Z,48.00
2022-10-09T11:42:22.148Z,45.80
2022-10-09T11:45:27.395Z,41.60
2022-10-09T11:48:22.015Z,40.60
2022-10-09T11:51:23.212Z,39.40
2022-10-09T11:54:15.960Z,36.90
2022-10-09T11:57:06.143Z,35.40
2022-10-09T12:00:06.410Z,33.10
2022-10-09T12:03:03.158Z,31.50
2022-10-09T12:05:50.106Z,29.30
2022-10-09T12:08:36.908Z,30.20
2022-10-09T12:11:23.047Z,28.30
2022-10-09T12:14:08.727Z,28.90
2022-10-09T12:16:54.504Z,27.60
2022-10-09T12:19:42.075Z,28.20
2022-10-09T12:22:31.960Z,26.70
2022-10-09T12:25:30.477Z,27.30
2022-10-09T12:28:33.952Z,27.30
2022-10-09T12:31:38.332Z,25.90
2022-10-09T12:34:38.987Z,24.80
2022-10-09T12:37:34.771Z,25.20
2022-10-09T12:40:33.508Z,24.80
2022-10-09T12:43:25.004Z,24.20
2022-10-09T12:46:10.830Z,23.40
2022-10-09T12:48:57.808Z,23.40
2022-10-09T12:51:57.963Z,22.50
2022-10-09T12:54:44.862Z,21.10
2022-10-09T12:57:30.376Z,22.50
2022-10-09T13:00:18.680Z,22.00
2022-10-09T13:03:04.097Z,22.90
2022-10-09T13:05:50.216Z,23.10
2022-10-09T13:08:38.416Z,23.30
2022-10-09T13:11:38.759Z,23.60
2022-10-09T13:14:33.215Z,23.40
2022-10-09T13:17:40.426Z,22.50
2022-10-09T13:20:35.279Z,23.10
2022-10-09T13:23:33.631Z,23.20
2022-10-09T13:26:30.249Z,22.70
2022-10-09T13:29:15.690Z,22.00
2022-10-09T13:32:02.871Z,21.80
2022-10-09T13:34:48.209Z,22.60
2022-10-09T13:37:33.912Z,22.90
2022-10-09T13:40:21.771Z,23.20
2022-10-09T13:43:07.176Z,22.50
2022-10-09T13:45:53.542Z,22.00
2022-10-09T13:48:39.635Z,21.80
2022-10-09T13:51:24.943Z,21.80
2022-10-09T13:54:20.556Z,22.70
2022-10-09T13:57:06.075Z,22.50
2022-10-09T13:59:51.645Z,21.70
2022-10-09T14:02:37.631Z,21.40
2022-10-09T14:05:23.866Z,21.80
2022-10-09T14:08:09.635Z,22.50
2022-10-09T14:10:55.679Z,22.30
2022-10-09T14:13:40.842Z,21.10
2022-10-09T14:16:28.211Z,21.40
2022-10-09T14:19:13.823Z,21.20
2022-10-09T14:22:02.015Z,20.80
2022-10-09T14:24:47.335Z,20.00
2022-10-09T14:27:32.725Z,20.60
2022-10-09T14:30:18.679Z,21.30
2022-10-09T14:33:04.171Z,20.00
2022-10-09T14:35:52.679Z,20.60
2022-10-09T14:38:42.532Z,21.00
2022-10-09T14:41:35.486Z,21.70
2022-10-09T14:44:22.810Z,21.20
2022-10-09T14:47:08.190Z,20.80
2022-10-09T14:49:53.595Z,21.30
2022-10-09T14:52:39.198Z,20.20
2022-10-09T14:55:24.633Z,20.10
2022-10-09T14:58:10.306Z,20.10
2022-10-09T15:00:55.716Z,19.80
2022-10-09T15:03:41.942Z,19.40
2022-10-09T15:06:28.175Z,18.80
2022-10-09T15:09:13.921Z,18.50
2022-10-09T15:11:59.511Z,18.20
2022-10-09T15:14:44.924Z,17.90
2022-10-09T15:17:30.545Z,17.30
2022-10-09T15:20:16.207Z,17.00
2022-10-09T15:23:01.628Z,16.70
2022-10-09T15:25:51.802Z,16.90
2022-10-09T15:28:42.030Z,16.90
2022-10-09T15:31:45.392Z,16.80
2022-10-09T15:34:30.894Z,17.10
2022-10-09T15:37:16.344Z,17.30
2022-10-09T15:40:01.649Z,17.40
2022-10-09T15:42:47.251Z,17.30
2022-10-09T15:45:35.527Z,17.30
2022-10-09T15:48:25.093Z,17.60
2022-10-09T15:51:14.217Z,17.80
2022-10-09T15:54:01.178Z,18.10
2022-10-09T15:56:47.185Z,18.60
2022-10-09T15:59:36.145Z,18.90
2022-10-09T16:02:21.675Z,19.30
2022-10-09T16:05:07.622Z,19.70
2022-10-09T16:07:53.170Z,20.70
2022-10-09T16:10:48.986Z,20.40
2022-10-09T16:13:37.895Z,21.10
2022-10-09T16:16:25.872Z,21.50
2022-10-09T16:19:11.189Z,22.10
2022-10-09T16:21:59.394Z,22.40
2022-10-09T16:24:45.200Z,23.10
2022-10-09T16:27:30.727Z,23.30
2022-10-09T16:30:16.828Z,23.60
2022-10-09T16:33:01.977Z,23.60
2022-10-09T16:35:47.399Z,23.90
2022-10-09T16:38:33.230Z,24.30
2022-10-09T16:41:20.425Z,25.10
2022-10-09T16:44:13.021Z,26.20
2022-10-09T16:46:58.434Z,27.20
2022-10-09T16:49:44.072Z,28.50
2022-10-09T16:52:29.690Z,30.00
2022-10-09T16:55:15.251Z,31.80
2022-10-09T16:58:00.801Z,33.90
2022-10-09T17:00:46.562Z,35.50
2022-10-09T17:03:32.117Z,37.10
2022-10-09T17:06:23.951Z,38.90
2022-10-09T17:09:13.984Z,40.40
2022-10-09T17:11:59.604Z,41.70
2022-10-09T17:14:46.207Z,43.00
2022-10-09T17:17:31.811Z,44.30
2022-10-09T17:20:17.063Z,45.20
2022-10-09T17:23:03.163Z,46.20
2022-10-09T17:25:48.740Z,47.00
2022-10-09T17:28:34.711Z,48.00
2022-10-09T17:31:24.001Z,48.80
2022-10-09T17:34:11.559Z,49.80
2022-10-09T17:36:57.181Z,50.40
2022-10-09T17:39:49.758Z,51.10
2022-10-09T17:42:39.833Z,51.80
2022-10-09T17:45:25.227Z,52.90
2022-10-09T17:48:10.700Z,53.50
2022-10-09T17:50:57.791Z,54.30
2022-10-09T17:53:44.525Z,55.00
2022-10-09T17:56:31.419Z,55.60
2022-10-09T17:59:16.787Z,56.20
2022-10-09T18:02:02.423Z,56.70
2022-10-09T18:04:50.667Z,57.30
2022-10-09T18:07:36.263Z,57.80
2022-10-09T18:10:21.783Z,58.40
2022-10-09T18:13:08.615Z,58.90
2022-10-09T18:15:54.186Z,59.30
2022-10-09T18:18:43.376Z,59.80
2022-10-09T18:21:28.648Z,60.30
2022-10-09T18:24:16.608Z,60.90
2022-10-09T18:27:01.932Z,61.50
2022-10-09T18:29:47.607Z,62.40
2022-10-09T18:32:33.147Z,62.60
2022-10-09T18:35:18.848Z,63.20
2022-10-09T18:38:05.111Z,63.60
2022-10-09T18:40:50.676Z,64.10
2022-10-09T18:43:36.443Z,64.60
2022-10-09T18:46:25.496Z,65.30
2022-10-09T18:49:13.567Z,65.80
2022-10-09T18:52:02.715Z,66.30
2022-10-09T18:54:52.919Z,66.60
2022-10-09T18:57:42.708Z,67.00
2022-10-09T19:00:28.155Z,67.40
2022-10-09T19:03:13.831Z,68.00
2022-10-09T19:05:59.148Z,68.40
2022-10-09T19:08:45.105Z,68.90
2022-10-09T19:11:37.754Z,69.40
2022-10-09T19:14:23.160Z,69.80
2022-10-09T19:17:09.096Z,70.60
2022-10-09T19:19:54.426Z,71.00
2022-10-09T19:22:46.479Z,71.30
2022-10-09T19:25:31.963Z,71.60
2022-10-09T19:28:19.104Z,71.90
2022-10-09T19:31:09.244Z,72.40
2022-10-09T19:33:54.740Z,72.70
2022-10-09T19:36:40.176Z,73.00
2022-10-09T19:39:25.657Z,73.30
2022-10-09T19:42:11.151Z,73.60
2022-10-09T19:44:56.583Z,73.90
2022-10-09T19:47:42.072Z,74.00
2022-10-09T19:50:27.756Z,74.10
2022-10-09T19:53:14.094Z,74.30
2022-10-09T19:55:59.882Z,74.60
2022-10-09T19:58:47.896Z,74.60
2022-10-09T20:01:35.299Z,74.80
2022-10-09T20:04:20.624Z,75.00
2022-10-09T20:07:12.523Z,75.20
2022-10-09T20:09:58.212Z,75.40
2022-10-09T20:12:43.745Z,75.20
2022-10-09T20:15:32.206Z,75.50
2022-10-09T20:18:18.108Z,75.50
2022-10-09T20:21:03.700Z,75.80
2022-10-09T20:23:49.883Z,76.00
2022-10-09T20:26:37.696Z,76.10
2022-10-09T20:29:27.201Z,75.90
2022-10-09T20:32:12.680Z,75.90
2022-10-09T20:35:02.387Z,75.80
2022-10-09T20:37:47.352Z,76.00
2022-10-09T20:40:33.699Z,76.20
2022-10-09T20:43:19.491Z,76.40
2022-10-09T20:46:09.689Z,76.40
2022-10-09T20:48:55.674Z,76.50
2022-10-09T20:51:42.159Z,76.50
2022-10-09T20:54:30.203Z,76.40
2022-10-09T20:57:15.787Z,76.50
2022-10-09T21:00:01.470Z,76.60
2022-10-09T21:02:49.560Z,76.60
2022-10-09T21:05:41.483Z,76.80
2022-10-09T21:08:26.848Z,76.70
2022-10-09T21:11:16.525Z,76.60
2022-10-09T21:14:02.574Z,76.70
2022-10-09T21:16:50.527Z,77.00
2022-10-09T21:19:35.656Z,77.10
2022-10-09T21:22:24.948Z,77.20
2022-10-09T21:25:10.118Z,77.30
2022-10-09T21:27:55.777Z,77.40
2022-10-09T21:30:41.943Z,77.50
2022-10-09T21:33:27.471Z,77.70
2022-10-09T21:36:25.610Z,77.80
2022-10-09T21:39:11.392Z,78.10
2022-10-09T21:41:57.013Z,78.20
2022-10-09T21:44:42.244Z,78.50
2022-10-09T21:47:27.600Z,78.50
2022-10-09T21:50:13.349Z,78.80
2022-10-09T21:52:59.100Z,78.80
2022-10-09T21:55:45.334Z,79.00
2022-10-09T21:58:31.048Z,79.10
2022-10-09T22:01:17.104Z,79.20
2022-10-09T22:04:02.592Z,79.10
2022-10-09T22:06:47.874Z,79.20
2022-10-09T22:09:33.484Z,79.70
2022-10-09T22:12:18.995Z,80.00
2022-10-09T22:15:05.491Z,79.90
2022-10-09T22:17:50.943Z,79.90
2022-10-09T22:20:48.925Z,80.00
2022-10-09T22:23:34.963Z,80.20
2022-10-09T22:26:21.942Z,80.30
2022-10-09T22:29:07.344Z,80.50
2022-10-09T22:31:53.171Z,80.80
2022-10-09T22:34:38.562Z,80.70
2022-10-09T22:37:23.781Z,80.90
2022-10-09T22:40:09.896Z,81.10
2022-10-09T22:42:55.184Z,81.20
2022-10-09T22:45:40.517Z,81.10
2022-10-09T22:48:26.015Z,81.50
2022-10-09T22:51:13.714Z,81.60
2022-10-09T22:53:59.735Z,81.70
2022-10-09T22:56:46.008Z,82.20
2022-10-09T22:59:32.560Z,82.10
2022-10-09T23:02:18.320Z,82.20
2022-10-09T23:05:04.183Z,82.20
2022-10-09T23:07:49.652Z,83.00
2022-10-09T23:10:39.843Z,83.00
2022-10-09T23:13:25.287Z,83.20
2022-10-09T23:16:13.162Z,83.70
2022-10-09T23:19:05.409Z,83.20
2022-10-09T23:21:51.308Z,83.40
2022-10-09T23:24:36.743Z,83.40
2022-10-09T23:27:22.313Z,83.60
2022-10-09T23:30:08.411Z,83.60
2022-10-09T23:32:53.983Z,83.70
2022-10-09T23:35:47.407Z,84.00
2022-10-09T23:38:33.544Z,84.10
2022-10-09T23:41:22.797Z,84.20
2022-10-09T23:44:09.475Z,84.40
2022-10-09T23:46:57.848Z,84.40
2022-10-09T23:49:43.711Z,84.50
2022-10-09T23:52:28.953Z,84.50
2022-10-09T23:55:14.590Z,84.60
2022-10-09T23:58:01.987Z,84.90
